Time;durP1;ratioP1;P1;durP2;ratioP2;P2;SDS_P1;SDS_P2;PMS_P1;PMS_P2;Temp;Humidity;BMP_temperature;BMP_pressure;BME280_temperature;BME280_humidity;BME280_pressure;Samples;Min_cycle;Max_cycle;Signal;HPM_P1;HPM_P2
2021/12/10 00:00:49;;;;;;;117.03;75.47;;;;;;;24.55;33.50;99862.22;5063232;28;20090;-41
2021/12/10 00:03:28;;;;;;;107.78;71.47;;;;;;;24.54;33.48;99864.00;5063166;28;20106;-43
2021/12/10 00:06:03;;;;;;;111.75;72.20;;;;;;;24.62;33.18;99863.03;5063337;28;20043;-42
2021/12/10 00:08:34;;;;;;;95.35;64.35;;;;;;;24.61;33.01;99864.81;5063505;28;20039;-42
2021/12/10 00:11:10;;;;;;;100.10;65.20;;;;;;;24.56;33.22;99869.22;5063487;28;20024;-43
2021/12/10 00:13:40;;;;;;;100.70;64.68;;;;;;;24.50;33.07;99885.84;5063164;28;20020;-41
2021/12/10 00:16:08;;;;;;;91.68;62.85;;;;;;;24.53;33.04;99874.47;5063392;28;20055;-42
2021/12/10 00:18:40;;;;;;;92.18;61.80;;;;;;;24.59;33.16;99842.97;5063265;28;20025;-42
2021/12/10 00:21:07;;;;;;;98.10;63.25;;;;;;;24.50;33.33;99856.13;5062563;28;20131;-42
2021/12/10 00:23:37;;;;;;;89.07;58.20;;;;;;;24.51;33.22;99857.88;5062976;28;20043;-42
2021/12/10 00:26:06;;;;;;;92.45;58.67;;;;;;;24.56;33.21;99849.13;5061718;28;20036;-43
2021/12/10 00:28:39;;;;;;;79.80;52.90;;;;;;;24.55;32.71;99852.63;5063028;28;20036;-42
2021/12/10 00:31:44;;;;;;;85.65;56.78;;;;;;;24.56;33.02;99863.97;5062885;28;20174;-45
2021/12/10 00:34:01;;;;;;;85.65;55.42;;;;;;;24.62;32.55;99866.56;5062649;28;20047;-42
2021/12/10 00:36:31;;;;;;;90.53;55.92;;;;;;;24.56;32.99;99871.81;5063164;28;20036;-42
2021/12/10 00:39:01;;;;;;;81.25;53.75;;;;;;;24.55;32.64;99863.09;5063011;28;20036;-43
2021/12/10 00:41:30;;;;;;;85.18;54.35;;;;;;;24.50;32.76;99859.63;5061630;28;20044;-44
2021/12/10 00:43:59;;;;;;;84.63;52.53;;;;;;;24.48;32.77;99884.13;5061722;28;20093;-42
2021/12/10 00:46:28;;;;;;;80.55;50.55;;;;;;;24.52;33.02;99888.44;5062715;28;20101;-42
2021/12/10 00:48:57;;;;;;;78.80;50.67;;;;;;;24.45;33.10;99892.00;5063024;28;20448;-42
2021/12/10 00:51:27;;;;;;;78.43;51.80;;;;;;;24.50;32.98;99890.22;5062571;28;20032;-42
2021/12/10 00:53:56;;;;;;;84.57;49.53;;;;;;;24.51;32.41;99886.72;5062823;28;20025;-42
2021/12/10 00:56:25;;;;;;;79.03;49.78;;;;;;;24.51;32.32;99892.84;5062705;28;20086;-42
2021/12/10 00:58:54;;;;;;;74.85;48.70;;;;;;;24.48;32.89;99892.00;5061195;28;20033;-42
2021/12/10 01:01:25;;;;;;;73.38;49.47;;;;;;;24.46;32.43;99891.13;5062308;28;20033;-43
2021/12/10 01:03:59;;;;;;;75.63;49.33;;;;;;;24.40;32.76;99890.28;5063072;28;20044;-42
2021/12/10 01:06:28;;;;;;;66.25;43.75;;;;;;;24.48;32.41;99898.09;5065916;28;20048;-42
2021/12/10 01:09:02;;;;;;;72.60;46.35;;;;;;;24.42;32.62;99893.75;5064891;28;20077;-42
2021/12/10 01:11:35;;;;;;;74.72;44.85;;;;;;;24.40;32.47;99899.91;5066292;28;20035;-42
2021/12/10 01:14:15;;;;;;;66.93;44.50;;;;;;;24.40;32.86;99910.41;5064797;28;20055;-43
2021/12/10 01:25:23;;;;;;;69.80;45.20;;;;;;;24.41;32.78;99933.97;5062014;28;20467;-42
2021/12/10 01:27:52;;;;;;;72.05;44.95;;;;;;;24.46;32.74;99940.94;5065870;28;20989;-42
2021/12/10 01:30:30;;;;;;;65.55;43.58;;;;;;;24.42;32.53;99951.44;5064599;28;20032;-41
2021/12/10 01:33:02;;;;;;;62.88;42.20;;;;;;;24.44;32.46;99985.50;5065913;28;20430;-42
2021/12/10 01:35:34;;;;;;;62.22;42.60;;;;;;;24.41;32.34;99938.31;5066015;28;20050;-42
2021/12/10 01:38:05;;;;;;;61.42;39.90;;;;;;;24.35;32.29;99948.84;5066002;28;20394;-42
2021/12/10 01:40:35;;;;;;;68.80;42.33;;;;;;;24.40;32.54;99947.94;5065568;28;20753;-41
2021/12/10 01:43:07;;;;;;;65.18;41.05;;;;;;;24.34;32.38;99947.97;5064630;28;20037;-42
2021/12/10 01:45:46;;;;;;;60.05;40.58;;;;;;;24.30;32.75;99946.25;5065908;28;20090;-41
2021/12/10 01:48:20;;;;;;;58.13;39.63;;;;;;;24.38;32.47;99952.31;5065970;28;20038;-43
2021/12/10 01:50:50;;;;;;;60.28;38.25;;;;;;;24.43;32.32;99954.91;5064258;28;20039;-43
2021/12/10 01:53:21;;;;;;;58.30;39.65;;;;;;;24.28;32.72;99951.50;5064293;28;20094;-43
2021/12/10 01:55:51;;;;;;;55.47;36.08;;;;;;;24.33;32.50;99955.84;5065623;28;20474;-44
2021/12/10 01:58:24;;;;;;;64.50;39.83;;;;;;;24.27;32.31;99962.84;5065730;28;20076;-43
2021/12/10 02:00:58;;;;;;;60.08;37.92;;;;;;;24.30;32.35;99972.47;5065259;28;20032;-42
2021/12/10 02:03:27;;;;;;;63.42;39.20;;;;;;;24.24;32.48;99973.34;5064061;28;20044;-42
2021/12/10 02:05:56;;;;;;;57.05;37.47;;;;;;;24.33;32.29;99997.78;5063978;28;20961;-42
2021/12/10 02:08:25;;;;;;;54.00;36.88;;;;;;;24.31;32.31;99995.19;5065189;28;20036;-42
2021/12/10 02:10:52;;;;;;;59.50;37.92;;;;;;;24.32;32.21;99967.22;5065224;28;20028;-45
2021/12/10 02:13:21;;;;;;;58.03;37.10;;;;;;;24.31;32.04;99958.50;5064969;28;20551;-47
2021/12/10 02:15:49;;;;;;;52.92;34.10;;;;;;;24.30;31.95;99961.09;5064148;28;20028;-42
2021/12/10 02:18:18;;;;;;;55.40;35.47;;;;;;;24.21;32.18;99968.13;5065267;28;20028;-43
2021/12/10 02:20:56;;;;;;;53.88;35.92;;;;;;;24.19;32.12;99975.13;5064958;28;20039;-44
2021/12/10 02:23:24;;;;;;;59.30;37.55;;;;;;;24.15;32.58;99977.78;5064037;28;20051;-45
2021/12/10 02:25:53;;;;;;;57.40;36.85;;;;;;;24.24;32.58;99973.34;5064930;28;20033;-42
2021/12/10 02:28:22;;;;;;;52.33;35.00;;;;;;;24.24;32.06;99982.97;5065129;28;20119;-43
2021/12/10 02:30:51;;;;;;;57.72;34.65;;;;;;;24.18;32.56;99985.59;5064570;28;20040;-43
2021/12/10 02:33:19;;;;;;;53.72;33.90;;;;;;;24.18;32.40;99983.88;5064730;28;20116;-43
2021/12/10 02:35:48;;;;;;;56.95;36.72;;;;;;;24.15;32.38;99991.72;5064848;28;20085;-42
2021/12/10 02:38:18;;;;;;;59.15;37.70;;;;;;;24.11;32.32;99995.22;5064714;28;20071;-42
2021/12/10 02:40:48;;;;;;;55.90;37.60;;;;;;;24.05;32.39;100009.22;5064474;28;20086;-41
2021/12/10 02:43:18;;;;;;;57.33;36.00;;;;;;;24.06;32.54;99992.63;5064891;28;20033;-42
2021/12/10 02:45:49;;;;;;;58.72;39.10;;;;;;;24.12;32.63;100010.06;5064285;28;20029;-42
2021/12/10 02:48:18;;;;;;;60.75;38.45;;;;;;;24.10;32.72;100007.47;5064291;28;20516;-42
2021/12/10 02:50:47;;;;;;;59.53;38.42;;;;;;;24.05;32.47;100009.22;5064349;28;20478;-42
2021/12/10 02:53:16;;;;;;;55.20;36.78;;;;;;;24.12;32.53;100000.47;5063908;28;20127;-43
2021/12/10 02:55:45;;;;;;;58.78;36.55;;;;;;;24.08;32.68;100001.34;5064173;28;20401;-43
2021/12/10 02:58:14;;;;;;;62.25;39.05;;;;;;;24.00;32.59;100010.09;5064534;28;20112;-42
2021/12/10 03:00:56;;;;;;;58.83;37.17;;;;;;;24.04;32.77;100025.81;5064347;28;20036;-42
2021/12/10 03:03:25;;;;;;;61.30;38.88;;;;;;;24.13;32.61;100043.25;5064090;28;20080;-43
2021/12/10 03:05:54;;;;;;;57.90;38.17;;;;;;;24.12;32.58;100034.53;5064542;28;20028;-42
2021/12/10 03:08:22;;;;;;;61.35;39.45;;;;;;;24.10;32.56;100031.06;5064527;28;20485;-43
2021/12/10 03:10:51;;;;;;;59.42;39.03;;;;;;;24.05;32.29;100040.66;5063867;28;20619;-43
2021/12/10 03:13:20;;;;;;;64.72;38.30;;;;;;;24.04;32.84;100045.91;5064078;28;20016;-42
2021/12/10 03:15:50;;;;;;;58.47;39.25;;;;;;;24.04;32.49;100051.16;5063975;28;20382;-42
2021/12/10 03:18:19;;;;;;;60.05;40.13;;;;;;;24.11;32.36;100059.00;5063143;28;20032;-42
2021/12/10 03:20:48;;;;;;;58.15;37.97;;;;;;;24.15;32.47;100051.13;5063727;28;20810;-41
2021/12/10 03:23:16;;;;;;;57.53;36.60;;;;;;;24.08;32.43;100050.25;5063754;28;20075;-41
2021/12/10 03:25:45;;;;;;;57.90;36.85;;;;;;;24.15;32.00;100052.00;5064108;28;20063;-42
2021/12/10 03:28:14;;;;;;;56.63;35.58;;;;;;;24.11;32.19;100058.09;5062216;28;20390;-42
2021/12/10 03:30:48;;;;;;;62.03;41.88;;;;;;;24.10;32.58;100066.84;5061975;28;20569;-42
2021/12/10 03:33:16;;;;;;;52.63;35.95;;;;;;;24.13;32.16;100066.84;5062955;28;20402;-42
2021/12/10 03:35:47;;;;;;;60.78;39.42;;;;;;;24.08;32.30;100071.22;5063902;28;20024;-43
2021/12/10 03:38:19;;;;;;;61.85;38.53;;;;;;;23.98;32.23;100065.13;5063708;28;20043;-43
2021/12/10 03:40:48;;;;;;;59.55;36.78;;;;;;;24.09;32.08;100076.47;5061866;28;20808;-43
2021/12/10 03:43:17;;;;;;;58.38;37.08;;;;;;;24.02;32.33;100069.47;5063589;28;20412;-42
2021/12/10 03:45:49;;;;;;;60.38;38.22;;;;;;;24.00;32.18;100071.22;5063549;28;20028;-42
2021/12/10 03:48:22;;;;;;;62.75;38.30;;;;;;;23.96;32.18;100075.59;5063428;28;20667;-44
2021/12/10 03:50:51;;;;;;;59.83;39.13;;;;;;;23.98;32.19;100086.09;5063200;28;21141;-42
2021/12/10 03:53:20;;;;;;;61.03;38.15;;;;;;;24.00;32.16;100089.56;5063344;28;20525;-42
2021/12/10 03:55:50;;;;;;;59.65;37.72;;;;;;;24.04;32.02;100087.84;5063641;28;20036;-42
2021/12/10 03:58:19;;;;;;;63.78;38.25;;;;;;;24.08;32.28;100092.16;5063429;28;20032;-42
2021/12/10 04:00:50;;;;;;;58.95;38.05;;;;;;;24.05;32.17;100093.06;5063296;28;20025;-42
2021/12/10 04:03:21;;;;;;;58.50;37.70;;;;;;;23.99;32.42;100097.44;5063301;28;20493;-43
2021/12/10 04:05:50;;;;;;;60.10;38.05;;;;;;;24.06;32.05;100105.28;5062884;28;20029;-42
2021/12/10 04:08:19;;;;;;;62.92;39.85;;;;;;;24.01;32.38;100101.78;5063343;28;20020;-42
2021/12/10 04:10:48;;;;;;;63.80;38.58;;;;;;;24.02;32.28;100100.06;5063198;28;20037;-42
2021/12/10 04:13:18;;;;;;;61.30;39.10;;;;;;;23.99;32.65;100095.69;5062774;28;20210;-42
2021/12/10 04:15:46;;;;;;;58.83;38.67;;;;;;;23.93;32.51;100100.91;5063300;28;20086;-42
2021/12/10 04:18:16;;;;;;;68.22;39.97;;;;;;;23.94;32.43;100105.28;5062209;28;20036;-43
2021/12/10 04:20:45;;;;;;;62.88;40.15;;;;;;;23.93;32.36;100106.13;5063075;28;20115;-42
2021/12/10 04:23:17;;;;;;;60.10;38.63;;;;;;;23.91;32.32;100113.97;5063449;28;20028;-42
2021/12/10 04:25:46;;;;;;;54.72;36.58;;;;;;;23.95;32.09;100109.63;5063059;28;20032;-42
2021/12/10 04:28:18;;;;;;;58.80;38.55;;;;;;;23.99;32.34;100137.63;5063063;28;20389;-42
2021/12/10 04:30:47;;;;;;;53.20;35.80;;;;;;;24.02;32.34;100169.03;5062800;28;20033;-42
2021/12/10 04:33:21;;;;;;;56.97;36.95;;;;;;;24.06;32.07;100151.59;5062418;28;20097;-42
2021/12/10 04:35:52;;;;;;;58.03;37.55;;;;;;;24.04;32.34;100158.56;5063148;28;20028;-42
2021/12/10 04:38:23;;;;;;;60.15;38.08;;;;;;;23.97;32.19;100144.59;5064741;28;20028;-44
2021/12/10 04:40:52;;;;;;;53.10;33.53;;;;;;;24.02;31.61;100153.31;5067204;28;20024;-42
2021/12/10 04:43:23;;;;;;;51.53;33.63;;;;;;;24.03;31.71;100157.69;5066987;28;20028;-42
2021/12/10 04:45:53;;;;;;;52.38;33.95;;;;;;;23.97;31.96;100162.94;5066999;28;20035;-42
2021/12/10 04:48:22;;;;;;;54.58;34.95;;;;;;;23.98;32.23;100156.84;5066895;28;20039;-42
2021/12/10 04:50:51;;;;;;;55.25;34.20;;;;;;;23.97;31.72;100155.94;5066672;28;20028;-42
2021/12/10 04:53:19;;;;;;;53.72;35.30;;;;;;;23.90;32.02;100145.44;5065979;28;20040;-42
2021/12/10 04:55:49;;;;;;;56.13;37.17;;;;;;;23.84;31.92;100122.72;5066525;28;20028;-42
2021/12/10 04:58:17;;;;;;;57.35;35.35;;;;;;;23.88;31.90;100152.41;5066295;28;20047;-44
2021/12/10 05:00:49;;;;;;;57.80;35.80;;;;;;;23.92;32.09;100151.53;5066313;28;20028;-42
2021/12/10 05:03:16;;;;;;;54.72;34.80;;;;;;;23.93;31.90;100156.78;5064833;28;20102;-42
2021/12/10 05:05:46;;;;;;;53.85;33.78;;;;;;;23.86;31.94;100162.00;5066645;28;20033;-45
2021/12/10 05:08:15;;;;;;;54.33;35.30;;;;;;;23.90;31.86;100150.66;5066645;28;20522;-42
2021/12/10 05:10:44;;;;;;;51.88;33.50;;;;;;;23.89;31.76;100154.16;5066457;28;20062;-43
2021/12/10 05:13:11;;;;;;;56.38;36.38;;;;;;;23.86;32.31;100157.66;5066270;28;20060;-43
2021/12/10 05:15:40;;;;;;;53.83;34.95;;;;;;;23.84;31.86;100159.41;5066441;28;20402;-44
2021/12/10 05:18:13;;;;;;;52.13;34.47;;;;;;;23.80;32.23;100153.28;5066192;28;20568;-43
2021/12/10 05:20:48;;;;;;;55.50;35.13;;;;;;;23.87;31.87;100166.38;5066343;28;20431;-43
2021/12/10 05:23:16;;;;;;;;;;;;;;;24.13;31.81;100184.75;5066692;28;20389;-43
2021/12/10 05:25:44;;;;;;;55.38;35.25;;;;;;;23.92;31.99;100182.97;5066401;28;19965;-42
2021/12/10 05:28:14;;;;;;;51.85;34.42;;;;;;;23.89;31.62;100182.97;5066352;28;20044;-43
2021/12/10 05:30:43;;;;;;;54.58;34.72;;;;;;;23.84;32.22;100188.22;5066257;28;20037;-42
2021/12/10 05:33:16;;;;;;;56.80;35.67;;;;;;;23.82;32.22;100195.19;5065875;28;20028;-42
2021/12/10 05:35:47;;;;;;;61.55;35.95;;;;;;;23.85;31.96;100194.31;5066255;28;20465;-43
2021/12/10 05:38:17;;;;;;;57.38;36.75;;;;;;;23.85;32.25;100199.53;5065607;28;20539;-42
2021/12/10 05:40:48;;;;;;;54.45;34.50;;;;;;;23.70;32.02;100201.28;5065618;28;20047;-42
2021/12/10 05:43:17;;;;;;;54.63;35.92;;;;;;;23.77;31.98;100208.28;5065548;28;20386;-43
2021/12/10 05:45:46;;;;;;;56.00;36.13;;;;;;;23.78;32.34;100214.38;5065557;28;20036;-43
2021/12/10 05:48:15;;;;;;;57.35;36.65;;;;;;;23.78;31.97;100207.41;5065479;28;20131;-42
2021/12/10 05:50:44;;;;;;;59.95;37.83;;;;;;;23.79;32.34;100213.50;5065206;28;20033;-42
2021/12/10 05:53:13;;;;;;;59.40;36.67;;;;;;;23.71;32.04;100221.34;5064306;28;20469;-42
2021/12/10 05:55:42;;;;;;;54.90;37.47;;;;;;;23.75;32.03;100222.22;5065907;28;20024;-42
2021/12/10 05:58:11;;;;;;;55.78;36.20;;;;;;;23.79;32.03;100231.84;5064570;28;20037;-43
2021/12/10 06:00:48;;;;;;;54.95;35.55;;;;;;;23.65;32.27;100229.22;5064929;28;20029;-43
2021/12/10 06:03:17;;;;;;;56.45;36.72;;;;;;;23.73;32.22;100229.22;5064712;28;20506;-46
2021/12/10 06:05:46;;;;;;;59.38;37.35;;;;;;;23.79;32.28;100235.34;5065224;28;20393;-43
2021/12/10 06:08:15;;;;;;;59.03;38.90;;;;;;;23.81;32.19;100244.09;5064960;28;20025;-45
2021/12/10 06:10:45;;;;;;;59.97;38.63;;;;;;;23.80;31.91;100250.19;5065024;28;20028;-43
2021/12/10 06:13:15;;;;;;;56.05;35.10;;;;;;;23.85;31.70;100249.31;5065243;28;20028;-43
2021/12/10 06:15:42;;;;;;;54.00;35.05;;;;;;;23.82;31.87;100269.41;5065397;28;20086;-45
2021/12/10 06:18:11;;;;;;;60.65;37.67;;;;;;;23.76;32.21;100261.53;5065289;28;20024;-45
2021/12/10 06:20:43;;;;;;;52.92;36.95;;;;;;;23.70;32.18;100279.84;5065191;28;20024;-44
2021/12/10 06:23:10;;;;;;;58.65;37.03;;;;;;;23.86;31.79;100285.13;5065179;28;20039;-43
2021/12/10 06:25:39;;;;;;;59.60;34.85;;;;;;;23.72;31.84;100288.56;5064830;28;20191;-44
2021/12/10 06:28:09;;;;;;;55.33;35.63;;;;;;;23.79;32.14;100285.13;5063308;28;20064;-43
2021/12/10 06:30:41;;;;;;;54.63;35.30;;;;;;;23.77;31.68;100275.47;5064792;28;20033;-44
2021/12/10 06:33:13;;;;;;;52.25;35.47;;;;;;;23.74;32.12;100281.59;5064819;28;20033;-43
2021/12/10 06:35:44;;;;;;;51.63;34.75;;;;;;;23.69;32.12;100303.41;5064278;28;20051;-43
2021/12/10 06:38:13;;;;;;;56.80;35.55;;;;;;;23.69;32.14;100304.28;5064669;28;20033;-43
2021/12/10 06:40:43;;;;;;;52.83;34.22;;;;;;;23.47;32.52;100308.53;5064501;28;20028;-43
2021/12/10 06:43:15;;;;;;;53.40;34.72;;;;;;;23.61;31.86;100306.00;5065036;28;20125;-43
2021/12/10 06:45:45;;;;;;;53.80;33.35;;;;;;;23.68;32.16;100310.38;5064890;28;20390;-44
2021/12/10 06:48:14;;;;;;;53.50;35.53;;;;;;;23.64;31.96;100311.25;5064337;28;20030;-43
2021/12/10 06:50:48;;;;;;;51.10;35.15;;;;;;;23.61;31.89;100329.56;5064600;28;20568;-43
2021/12/10 06:53:19;;;;;;;57.80;36.77;;;;;;;23.62;31.99;100326.94;5062717;28;20036;-43
2021/12/10 06:55:48;;;;;;;52.25;35.00;;;;;;;23.62;31.97;100328.69;5064272;28;20089;-43
2021/12/10 06:58:17;;;;;;;54.88;34.55;;;;;;;23.71;31.86;100333.09;5064520;28;20486;-43
2021/12/10 07:00:51;;;;;;;53.38;34.45;;;;;;;23.61;31.77;100335.66;5063903;28;20094;-43
2021/12/10 07:03:23;;;;;;;50.63;34.10;;;;;;;23.69;31.63;100335.69;5063627;28;20083;-44
2021/12/10 07:05:52;;;;;;;52.10;34.58;;;;;;;23.74;32.06;100356.69;5064303;28;20040;-43
2021/12/10 07:08:21;;;;;;;55.95;34.85;;;;;;;23.72;31.67;100354.03;5063823;28;20028;-43
2021/12/10 07:10:50;;;;;;;60.15;36.88;;;;;;;23.71;31.89;100349.66;5063925;28;20024;-43
2021/12/10 07:13:18;;;;;;;49.47;33.53;;;;;;;23.69;32.05;100343.53;5063799;28;20036;-43
2021/12/10 07:15:49;;;;;;;58.10;38.00;;;;;;;23.63;31.91;100347.03;5064054;28;20045;-43
2021/12/10 07:18:19;;;;;;;55.22;37.05;;;;;;;23.73;31.83;100358.41;5064065;28;20033;-43
2021/12/10 07:20:48;;;;;;;57.17;35.03;;;;;;;23.66;32.00;100362.75;5064264;28;20042;-44
2021/12/10 07:23:16;;;;;;;54.38;35.63;;;;;;;23.71;32.13;100378.47;5063822;28;20049;-43
2021/12/10 07:25:45;;;;;;;56.20;35.22;;;;;;;23.60;32.05;100378.41;5063646;28;20450;-43
2021/12/10 07:28:14;;;;;;;52.53;33.05;;;;;;;23.66;32.06;100380.22;5064094;28;20029;-43
2021/12/10 07:30:42;;;;;;;56.30;36.42;;;;;;;23.59;32.06;100387.13;5063855;28;20406;-43
2021/12/10 07:33:11;;;;;;;55.05;36.22;;;;;;;23.60;32.29;100383.66;5063389;28;20111;-43
2021/12/10 07:35:39;;;;;;;51.83;33.65;;;;;;;23.64;32.30;100395.03;5063773;28;20102;-43
2021/12/10 07:38:09;;;;;;;50.67;32.88;;;;;;;23.70;31.95;100384.59;5063672;28;20454;-43
2021/12/10 07:40:38;;;;;;;47.53;33.05;;;;;;;23.74;31.93;100391.59;5063849;28;20032;-43
2021/12/10 07:43:06;;;;;;;50.22;32.20;;;;;;;23.80;32.02;100402.09;5063749;28;20037;-43
2021/12/10 07:45:35;;;;;;;48.75;31.60;;;;;;;23.81;31.67;100401.25;5063701;28;20086;-42
2021/12/10 07:48:08;;;;;;;48.13;30.92;;;;;;;23.81;32.20;100400.34;5062208;28;20034;-43
2021/12/10 07:50:40;;;;;;;50.03;31.48;;;;;;;23.71;32.28;100394.19;5063552;28;20060;-42
2021/12/10 07:53:09;;;;;;;45.85;30.35;;;;;;;23.75;31.74;100401.19;5063290;28;20032;-43
2021/12/10 07:55:40;;;;;;;47.42;30.60;;;;;;;23.75;31.79;100387.22;5063398;28;20036;-42
2021/12/10 07:58:08;;;;;;;43.03;28.10;;;;;;;23.71;32.18;100396.81;5063768;28;20025;-43
2021/12/10 08:00:40;;;;;;;43.55;27.65;;;;;;;23.75;32.21;100400.31;5063612;28;20036;-42
2021/12/10 08:03:09;;;;;;;44.25;25.33;;;;;;;23.79;32.00;100386.38;5063320;28;20057;-43
2021/12/10 08:05:38;;;;;;;37.00;25.63;;;;;;;23.80;31.72;100389.00;5063499;28;20036;-42
2021/12/10 08:08:08;;;;;;;62.38;35.08;;;;;;;23.76;32.16;100395.09;5061857;28;20082;-42
2021/12/10 08:10:37;;;;;;;88.82;53.53;;;;;;;23.75;31.75;100403.81;5063429;28;20031;-42
2021/12/10 08:13:05;;;;;;;109.43;66.35;;;;;;;23.79;32.10;100409.94;5062497;28;20039;-43
2021/12/10 08:15:35;;;;;;;143.02;82.85;;;;;;;23.79;32.04;100416.06;5062642;28;20029;-44
2021/12/10 08:18:04;;;;;;;133.90;79.35;;;;;;;23.79;32.02;100420.41;5063095;28;20025;-44
2021/12/10 08:20:33;;;;;;;139.93;85.63;;;;;;;23.79;31.87;100417.78;5063172;28;20060;-43
2021/12/10 08:23:01;;;;;;;139.63;85.65;;;;;;;23.80;32.17;100417.81;5063346;28;20473;-44
2021/12/10 08:25:30;;;;;;;141.60;85.10;;;;;;;23.76;32.01;100416.06;5063453;28;20042;-43
2021/12/10 08:27:59;;;;;;;147.10;88.20;;;;;;;23.77;32.03;100425.66;5063016;28;20086;-43
2021/12/10 08:30:29;;;;;;;136.15;79.82;;;;;;;23.70;31.95;100431.72;5063006;28;20028;-44
2021/12/10 08:32:58;;;;;;;128.55;77.93;;;;;;;23.71;32.16;100433.47;5062937;28;20466;-43
2021/12/10 08:35:31;;;;;;;121.97;73.97;;;;;;;23.73;32.22;100442.22;5063262;28;20032;-43
2021/12/10 08:38:02;;;;;;;114.22;71.05;;;;;;;23.78;32.24;100445.75;5062961;28;20035;-43
2021/12/10 08:40:38;;;;;;;111.57;67.07;;;;;;;23.73;31.93;100449.22;5062855;28;20122;-44
2021/12/10 08:43:07;;;;;;;109.10;66.43;;;;;;;23.72;31.84;100448.31;5062774;28;20176;-44
2021/12/10 08:45:36;;;;;;;103.30;62.20;;;;;;;23.70;32.20;100449.19;5063011;28;20028;-43
2021/12/10 08:48:05;;;;;;;100.18;60.63;;;;;;;23.74;32.23;100461.44;5062427;28;20093;-41
2021/12/10 08:50:36;;;;;;;98.00;58.45;;;;;;;23.70;32.23;100464.91;5062851;28;20099;-42
2021/12/10 08:53:07;;;;;;;88.57;53.67;;;;;;;23.66;32.38;100477.09;5062996;28;20406;-42
2021/12/10 08:55:36;;;;;;;81.43;49.75;;;;;;;23.74;32.07;100475.41;5063061;28;20035;-42
2021/12/10 08:58:05;;;;;;;79.10;47.65;;;;;;;23.70;31.88;100484.09;5062879;28;20454;-43
2021/12/10 09:00:34;;;;;;;75.78;45.78;;;;;;;23.76;32.10;100489.38;5061619;28;20032;-43
2021/12/10 09:03:03;;;;;;;75.53;44.95;;;;;;;23.76;32.21;100488.50;5062405;28;20052;-42
2021/12/10 09:05:31;;;;;;;69.63;41.90;;;;;;;23.72;32.13;100487.59;5063024;28;20029;-42
2021/12/10 09:07:59;;;;;;;63.03;38.17;;;;;;;23.79;31.82;100492.03;5062991;28;20447;-42
2021/12/10 09:10:32;;;;;;;58.85;36.50;;;;;;;23.75;31.90;100499.84;5062660;28;20374;-43
2021/12/10 09:13:01;;;;;;;60.85;35.72;;;;;;;23.72;31.69;100497.22;5061424;28;20496;-43
2021/12/10 09:15:30;;;;;;;54.00;34.25;;;;;;;23.73;31.75;100506.81;5062782;28;20024;-43
2021/12/10 09:17:59;;;;;;;56.25;32.72;;;;;;;23.67;32.12;100515.50;5062637;28;20024;-42
2021/12/10 09:20:35;;;;;;;51.22;30.75;;;;;;;23.69;31.90;100511.16;5062904;28;20067;-43
2021/12/10 09:23:04;;;;;;;52.20;30.50;;;;;;;23.78;32.13;100524.31;5062470;28;20029;-42
2021/12/10 09:25:32;;;;;;;46.13;26.92;;;;;;;23.79;31.70;100527.81;5063206;28;20124;-42
2021/12/10 09:28:01;;;;;;;41.60;24.98;;;;;;;23.80;32.14;100534.78;5066044;28;20028;-43
2021/12/10 09:30:32;;;;;;;42.70;24.85;;;;;;;23.81;31.93;100532.22;5065863;28;20029;-42
2021/12/10 09:33:01;;;;;;;38.00;23.13;;;;;;;23.73;31.99;100543.50;5065852;28;20039;-42
2021/12/10 09:35:31;;;;;;;35.42;21.35;;;;;;;23.74;32.02;100542.63;5066539;28;20032;-43
2021/12/10 09:38:01;;;;;;;34.78;20.85;;;;;;;23.82;31.82;100547.06;5066058;28;20028;-42
2021/12/10 09:40:40;;;;;;;32.10;19.02;;;;;;;23.78;32.08;100547.91;5065559;28;20028;-43
2021/12/10 09:43:11;;;;;;;34.60;17.75;;;;;;;23.80;31.71;100538.31;5065387;28;20676;-42
2021/12/10 09:45:41;;;;;;;30.13;17.05;;;;;;;23.81;31.57;100541.78;5065857;28;20043;-43
2021/12/10 09:48:12;;;;;;;26.15;16.25;;;;;;;23.85;31.61;100561.00;5065492;28;20040;-43
2021/12/10 09:50:46;;;;;;;26.55;15.98;;;;;;;23.74;31.62;100558.34;5064288;28;21019;-43
2021/12/10 09:53:15;;;;;;;25.77;15.00;;;;;;;23.71;31.96;100556.56;5065926;28;20056;-46
2021/12/10 09:55:44;;;;;;;23.38;13.30;;;;;;;23.73;31.62;100567.06;5063875;28;20060;-43
2021/12/10 09:58:13;;;;;;;24.98;13.52;;;;;;;23.73;32.02;100562.69;5065194;28;20064;-43
2021/12/10 10:00:46;;;;;;;23.60;12.38;;;;;;;23.76;31.73;100562.72;5064068;28;20393;-42
2021/12/10 10:03:18;;;;;;;21.75;12.25;;;;;;;23.73;31.76;100564.44;5065379;28;20159;-41
2021/12/10 10:05:47;;;;;;;18.80;10.68;;;;;;;23.74;31.75;100569.69;5065558;28;20044;-42
2021/12/10 10:08:20;;;;;;;19.77;10.95;;;;;;;23.77;31.87;100569.72;5065469;28;20032;-42
2021/12/10 10:10:50;;;;;;;19.10;9.88;;;;;;;23.81;31.65;100581.09;5065053;28;20039;-42
2021/12/10 10:13:23;;;;;;;17.83;9.90;;;;;;;23.81;31.49;100594.19;5065225;28;20028;-42
2021/12/10 10:15:56;;;;;;;16.33;9.25;;;;;;;23.62;31.57;100577.44;5065190;28;20086;-42
2021/12/10 10:18:25;;;;;;;16.50;9.00;;;;;;;23.75;31.71;100605.50;5065293;28;20390;-42
2021/12/10 10:20:57;;;;;;;16.20;7.93;;;;;;;23.80;31.55;100609.03;5064933;28;20035;-42
2021/12/10 10:23:26;;;;;;;15.68;7.85;;;;;;;23.81;31.71;100620.38;5063987;28;20114;-42
2021/12/10 10:26:02;;;;;;;13.50;7.05;;;;;;;23.73;31.72;100629.91;5063842;28;20037;-42
2021/12/10 10:28:32;;;;;;;17.33;7.90;;;;;;;23.75;31.88;100623.81;5065130;28;20029;-42
2021/12/10 10:31:17;;;;;;;16.05;7.57;;;;;;;23.80;31.47;100621.22;5064480;28;20086;-42
2021/12/10 10:33:46;;;;;;;14.15;6.97;;;;;;;23.83;31.42;100619.50;5065040;28;20082;-42
2021/12/10 10:36:19;;;;;;;14.55;6.70;;;;;;;23.85;31.75;100621.25;5064748;28;20444;-41
2021/12/10 10:38:52;;;;;;;12.93;6.43;;;;;;;23.81;31.43;100629.13;5064423;28;20044;-42
2021/12/10 10:41:24;;;;;;;10.85;5.35;;;;;;;23.86;31.49;100639.63;5064592;28;20038;-43
2021/12/10 10:43:53;;;;;;;14.57;6.00;;;;;;;23.75;31.45;100646.50;5064700;28;20043;-42
2021/12/10 10:46:22;;;;;;;9.80;5.25;;;;;;;23.78;31.79;100649.16;5063234;28;20473;-42
2021/12/10 10:48:51;;;;;;;11.52;5.15;;;;;;;23.70;31.55;100651.69;5064630;28;20397;-42
2021/12/10 10:51:32;;;;;;;9.43;5.68;;;;;;;23.79;31.42;100666.63;5064513;28;20078;-42
2021/12/10 10:54:03;;;;;;;11.05;5.30;;;;;;;23.83;31.72;100676.28;5064318;28;20135;-42
2021/12/10 10:56:41;;;;;;;10.32;4.70;;;;;;;23.83;31.67;100674.50;5062538;28;20115;-42
2021/12/10 10:59:16;;;;;;;7.38;4.22;;;;;;;23.87;31.20;100678.06;5063861;28;20024;-43
2021/12/10 11:01:57;;;;;;;9.50;4.32;;;;;;;23.78;31.39;100697.19;5064076;28;20040;-43
2021/12/10 11:04:32;;;;;;;10.02;4.00;;;;;;;23.86;31.50;100689.41;5064219;28;20042;-42
2021/12/10 11:07:13;;;;;;;9.27;4.57;;;;;;;23.87;31.45;100690.28;5063896;28;20036;-42
2021/12/10 11:10:02;;;;;;;11.02;4.15;;;;;;;23.95;31.51;100701.72;5064165;28;20024;-41
2021/12/10 11:12:39;;;;;;;7.88;3.45;;;;;;;23.90;31.46;100685.97;5064044;28;20035;-42
2021/12/10 11:15:12;;;;;;;7.85;3.53;;;;;;;23.91;31.06;100687.69;5064266;28;20077;-42
2021/12/10 11:17:45;;;;;;;8.27;3.70;;;;;;;23.88;31.17;100686.78;5064293;28;20077;-42
2021/12/10 11:20:25;;;;;;;7.13;3.22;;;;;;;23.88;31.43;100697.25;5063976;28;20035;-42
2021/12/10 11:22:58;;;;;;;7.47;3.22;;;;;;;23.82;31.55;100683.28;5046076;28;20052;-42
2021/12/10 11:25:35;;;;;;;8.63;4.07;;;;;;;23.89;31.11;100683.31;5064223;28;20028;-42
2021/12/10 11:28:08;;;;;;;6.00;2.63;;;;;;;23.89;31.36;100692.06;5063922;28;20033;-42
2021/12/10 11:30:43;;;;;;;4.68;2.45;;;;;;;23.90;31.15;100699.06;5063866;28;20032;-44
2021/12/10 11:33:16;;;;;;;8.20;3.30;;;;;;;23.77;31.62;100708.53;5063804;28;20166;-42
2021/12/10 11:36:07;;;;;;;6.43;2.97;;;;;;;23.89;31.42;100704.25;5063691;28;21131;-42